Time;durP1;ratioP1;P1;durP2;ratioP2;P2;SDS_P1;SDS_P2;PMS_P1;PMS_P2;Temp;Humidity;BMP_temperature;BMP_pressure;BME280_temperature;BME280_humidity;BME280_pressure;Samples;Min_cycle;Max_cycle;Signal;HPM_P1;HPM_P2
2023/01/11 00:01:50;;;;;;;25.95;4.00;;;10.90;99.90;;;;;;4906081;29;20020;-51
2023/01/11 00:04:16;;;;;;;40.83;5.80;;;10.90;99.90;;;;;;4904415;29;20105;-45
2023/01/11 00:06:42;;;;;;;35.45;4.43;;;10.90;99.90;;;;;;4903568;29;20098;-45
2023/01/11 00:09:07;;;;;;;37.35;5.60;;;10.80;99.90;;;;;;4906877;29;20056;-47
2023/01/11 00:11:33;;;;;;;30.52;5.18;;;10.80;99.90;;;;;;4905069;29;20052;-48
2023/01/11 00:13:58;;;;;;;37.17;5.47;;;10.80;99.90;;;;;;4900022;29;20028;-47
2023/01/11 00:16:24;;;;;;;35.20;5.22;;;10.80;99.90;;;;;;4900428;29;20032;-48
2023/01/11 00:18:50;;;;;;;28.70;4.35;;;10.70;99.90;;;;;;4901254;29;20045;-49
2023/01/11 00:21:15;;;;;;;25.85;3.97;;;10.70;99.90;;;;;;4900003;29;20475;-46
2023/01/11 00:23:41;;;;;;;31.20;4.38;;;10.70;99.90;;;;;;4901621;29;20051;-45
2023/01/11 00:26:10;;;;;;;23.33;4.97;;;10.70;99.90;;;;;;4899745;29;20051;-46
2023/01/11 00:28:36;;;;;;;27.83;5.05;;;10.70;99.90;;;;;;4900527;29;20025;-45
2023/01/11 00:31:02;;;;;;;20.88;3.33;;;10.60;99.90;;;;;;4899894;29;20072;-46
2023/01/11 00:33:28;;;;;;;25.42;4.07;;;10.60;99.90;;;;;;4899993;29;20278;-45
2023/01/11 00:35:53;;;;;;;28.73;4.60;;;10.60;99.90;;;;;;4900451;29;20399;-46
2023/01/11 00:47:57;;;;;;;27.13;3.60;;;10.60;99.90;;;;;;4915146;29;20511;-46
2023/01/11 00:50:34;;;;;;;29.67;3.92;;;10.60;99.90;;;;;;4916113;29;20082;-45
2023/01/11 00:52:59;;;;;;;21.00;3.53;;;10.60;99.90;;;;;;4900923;29;20048;-45
2023/01/11 00:55:26;;;;;;;32.28;4.30;;;10.60;99.90;;;;;;4897303;29;20442;-45
2023/01/11 00:57:52;;;;;;;25.73;3.70;;;10.60;99.90;;;;;;4897251;29;20032;-47
2023/01/11 01:00:20;;;;;;;24.70;3.38;;;10.60;99.90;;;;;;4896977;29;20383;-47
2023/01/11 01:02:46;;;;;;;21.33;3.45;;;10.60;99.90;;;;;;4897682;29;20028;-46
2023/01/11 01:05:12;;;;;;;23.00;2.80;;;10.50;99.90;;;;;;4896776;29;20040;-51
2023/01/11 01:07:38;;;;;;;18.67;2.95;;;10.50;99.90;;;;;;4896873;29;20107;-48
2023/01/11 01:10:04;;;;;;;17.63;2.40;;;10.50;99.90;;;;;;4896279;29;20595;-47
2023/01/11 01:15:14;;;;;;;12.68;2.53;;;10.30;99.90;;;;;;4896732;29;20080;-47
2023/01/11 01:17:39;;;;;;;7.40;1.35;;;10.20;99.90;;;;;;4896850;29;20029;-45
2023/01/11 01:20:06;;;;;;;10.40;1.60;;;10.10;99.90;;;;;;4896631;29;20032;-52
2023/01/11 01:22:32;;;;;;;10.70;1.60;;;10.00;99.90;;;;;;4896692;29;20515;-47
2023/01/11 01:24:57;;;;;;;9.85;1.75;;;9.90;99.90;;;;;;4896290;29;20076;-48
2023/01/11 01:27:23;;;;;;;8.85;1.38;;;9.90;99.90;;;;;;4896687;29;20025;-46
2023/01/11 01:29:49;;;;;;;8.73;1.40;;;9.80;99.90;;;;;;4896652;29;20032;-46
2023/01/11 01:32:14;;;;;;;9.25;1.40;;;9.70;99.90;;;;;;4896609;29;20488;-51
2023/01/11 01:34:40;;;;;;;9.60;2.08;;;9.70;99.90;;;;;;4896395;29;20024;-44
2023/01/11 01:37:07;;;;;;;15.27;1.95;;;9.60;99.90;;;;;;4896306;29;20028;-45
2023/01/11 01:39:33;;;;;;;8.30;1.70;;;9.50;99.90;;;;;;4896607;29;20032;-47
2023/01/11 01:41:59;;;;;;;11.00;1.50;;;9.50;99.90;;;;;;4896472;29;20033;-45
2023/01/11 01:44:50;;;;;;;8.68;1.75;;;9.50;99.90;;;;;;4895501;29;20036;-48
2023/01/11 01:47:17;;;;;;;12.07;1.65;;;9.50;99.90;;;;;;4888418;29;20049;-52
2023/01/11 01:49:43;;;;;;;8.55;1.60;;;9.50;99.90;;;;;;4898881;29;20032;-48
2023/01/11 01:52:10;;;;;;;14.48;1.77;;;9.50;99.90;;;;;;4906796;29;20485;-46
2023/01/11 01:54:38;;;;;;;11.52;2.08;;;9.50;99.90;;;;;;4896159;29;20492;-47
2023/01/11 01:57:09;;;;;;;20.20;3.53;;;9.40;99.90;;;;;;4896276;29;20024;-48
2023/01/11 01:59:35;;;;;;;13.07;1.80;;;9.40;99.90;;;;;;4896267;29;20049;-46
2023/01/11 02:02:01;;;;;;;12.65;1.67;;;9.40;99.90;;;;;;4896048;29;20025;-48
2023/01/11 02:04:36;;;;;;;9.88;1.50;;;9.40;99.90;;;;;;4896266;29;20067;-51
2023/01/11 02:07:15;;;;;;;8.60;1.80;;;9.40;99.90;;;;;;4896112;29;20470;-51
2023/01/11 02:09:55;;;;;;;11.13;1.50;;;9.30;99.90;;;;;;4896144;29;20480;-48
2023/01/11 02:12:23;;;;;;;11.07;1.95;;;9.30;99.90;;;;;;4896047;29;20039;-51
2023/01/11 02:14:51;;;;;;;13.05;1.90;;;9.20;99.90;;;;;;4895945;29;20433;-45
2023/01/11 02:17:17;;;;;;;10.15;1.58;;;9.20;99.90;;;;;;4895883;29;20069;-48
2023/01/11 02:19:57;;;;;;;10.23;1.75;;;9.20;99.90;;;;;;4896003;29;20404;-52
2023/01/11 02:22:34;;;;;;;6.40;1.30;;;9.10;99.90;;;;;;4895725;29;20503;-52
2023/01/11 02:25:18;;;;;;;9.70;1.40;;;9.10;99.90;;;;;;4895142;29;20571;-51
2023/01/11 02:28:15;;;;;;;11.85;1.63;;;9.00;99.90;;;;;;4895902;29;20033;-50
2023/01/11 02:31:09;;;;;;;10.20;2.03;;;9.00;99.90;;;;;;4895593;29;20542;-51
2023/01/11 02:33:57;;;;;;;15.45;1.60;;;8.90;99.90;;;;;;4901993;29;20017;-47
2023/01/11 02:36:49;;;;;;;12.27;1.40;;;8.90;99.90;;;;;;4914657;29;20064;-48
2023/01/11 02:39:26;;;;;;;18.73;1.58;;;8.90;99.90;;;;;;4895664;29;20504;-49
2023/01/11 02:45:04;;;;;;;8.82;1.23;;;8.90;99.90;;;;;;4895681;29;20272;-44
2023/01/11 02:47:47;;;;;;;12.45;2.03;;;8.90;99.90;;;;;;4895702;29;20052;-51
2023/01/11 02:50:31;;;;;;;11.48;1.67;;;8.90;99.90;;;;;;4902221;29;20023;-48
2023/01/11 02:53:18;;;;;;;14.15;2.08;;;8.80;99.90;;;;;;4899841;29;20108;-53
2023/01/11 02:55:50;;;;;;;9.48;1.95;;;8.70;99.90;;;;;;4896594;29;20476;-44
2023/01/11 02:58:18;;;;;;;17.38;2.15;;;8.70;99.90;;;;;;4899660;29;20052;-43
2023/01/11 03:00:46;;;;;;;9.52;1.83;;;8.70;99.90;;;;;;4899383;29;20120;-45
2023/01/11 03:03:16;;;;;;;11.48;1.63;;;8.60;99.90;;;;;;4899333;29;20555;-44
2023/01/11 03:05:53;;;;;;;19.25;2.17;;;8.60;99.90;;;;;;4899234;29;20047;-44
2023/01/11 03:08:43;;;;;;;12.85;1.70;;;8.60;99.90;;;;;;4898969;29;20031;-47
2023/01/11 03:14:41;;;;;;;15.10;2.03;;;8.60;99.90;;;;;;4899389;29;20502;-45
2023/01/11 03:17:28;;;;;;;11.00;1.65;;;8.70;99.90;;;;;;4899280;29;20030;-49
2023/01/11 03:20:24;;;;;;;10.10;1.80;;;8.70;99.90;;;;;;4899112;29;20037;-55
2023/01/11 03:23:03;;;;;;;17.65;1.90;;;8.60;99.90;;;;;;4898936;29;20021;-51
2023/01/11 03:25:46;;;;;;;17.23;2.13;;;8.60;99.90;;;;;;4898850;29;20040;-50
2023/01/11 03:28:31;;;;;;;12.65;1.73;;;8.60;99.90;;;;;;4898961;29;20033;-44
2023/01/11 03:30:59;;;;;;;11.45;1.65;;;8.60;99.90;;;;;;4898921;29;20076;-43
2023/01/11 03:33:54;;;;;;;16.95;2.53;;;8.60;99.90;;;;;;4898621;29;20108;-43
2023/01/11 03:36:34;;;;;;;15.00;1.95;;;8.50;99.90;;;;;;4898572;29;20061;-44
2023/01/11 03:39:25;;;;;;;15.02;1.98;;;8.50;99.90;;;;;;4898687;29;20040;-50
2023/01/11 03:41:56;;;;;;;15.23;2.42;;;8.40;99.90;;;;;;4897920;29;20025;-43
2023/01/11 03:44:25;;;;;;;14.20;2.03;;;8.30;99.90;;;;;;4898511;29;20476;-44
2023/01/11 03:47:01;;;;;;;12.15;2.55;;;8.30;99.90;;;;;;4898461;29;20056;-48
2023/01/11 03:49:35;;;;;;;18.42;2.53;;;8.30;99.90;;;;;;4898893;29;20063;-50
2023/01/11 03:52:04;;;;;;;14.75;1.90;;;8.30;99.90;;;;;;4910126;29;20033;-45
2023/01/11 03:54:32;;;;;;;17.30;2.03;;;8.30;99.90;;;;;;4898479;29;20116;-47
2023/01/11 03:57:14;;;;;;;14.73;2.03;;;8.30;99.90;;;;;;4898571;29;20020;-50
2023/01/11 03:59:40;;;;;;;17.48;1.88;;;8.30;99.90;;;;;;4898366;29;20029;-44
2023/01/11 04:02:21;;;;;;;11.70;1.70;;;8.20;99.90;;;;;;4898333;29;20021;-53
2023/01/11 04:04:47;;;;;;;15.18;2.40;;;8.20;99.90;;;;;;4898269;29;20063;-48
2023/01/11 04:07:13;;;;;;;16.45;2.00;;;8.20;99.90;;;;;;4895942;29;20084;-48
2023/01/11 04:09:38;;;;;;;16.42;2.38;;;8.20;99.90;;;;;;4898240;29;20032;-45
2023/01/11 04:12:04;;;;;;;18.27;2.08;;;8.20;99.90;;;;;;4898065;29;20032;-54
2023/01/11 04:14:30;;;;;;;16.05;1.80;;;8.20;99.90;;;;;;4898253;29;20370;-47
2023/01/11 04:16:56;;;;;;;16.08;1.83;;;8.10;99.90;;;;;;4903031;29;20361;-52
2023/01/11 04:19:22;;;;;;;14.70;2.08;;;8.00;99.90;;;;;;4900138;29;20395;-47
2023/01/11 04:21:48;;;;;;;15.90;2.25;;;8.00;99.90;;;;;;4897768;29;20104;-51
2023/01/11 04:24:13;;;;;;;16.98;2.20;;;8.00;99.90;;;;;;4897990;29;20032;-47
2023/01/11 04:26:39;;;;;;;15.50;2.85;;;7.90;99.90;;;;;;4906994;29;20488;-50
2023/01/11 04:29:05;;;;;;;14.13;2.20;;;7.90;99.90;;;;;;4901350;29;20160;-49
2023/01/11 04:31:31;;;;;;;15.32;2.22;;;7.90;99.90;;;;;;4897928;29;20045;-54
2023/01/11 04:33:56;;;;;;;12.38;3.30;;;7.90;99.90;;;;;;4897629;29;20032;-44
2023/01/11 04:36:22;;;;;;;12.18;1.95;;;7.90;99.90;;;;;;4897635;29;20025;-43
2023/01/11 04:38:48;;;;;;;24.23;2.97;;;7.90;99.90;;;;;;4897717;29;20392;-44
2023/01/11 04:43:57;;;;;;;15.65;2.30;;;7.90;99.90;;;;;;4897769;29;20087;-44
2023/01/11 04:46:23;;;;;;;17.60;2.25;;;7.90;99.90;;;;;;4897220;29;20519;-49
2023/01/11 04:48:49;;;;;;;21.83;2.17;;;7.90;99.90;;;;;;4897613;29;20029;-45
2023/01/11 04:51:15;;;;;;;21.33;2.00;;;7.90;99.90;;;;;;4899029;29;20039;-48
2023/01/11 04:53:41;;;;;;;24.23;2.67;;;7.90;99.90;;;;;;4908752;29;20164;-48
2023/01/11 04:56:07;;;;;;;24.23;3.65;;;7.90;99.90;;;;;;4897407;29;20393;-44
2023/01/11 04:58:34;;;;;;;26.70;2.33;;;7.90;99.90;;;;;;4897351;29;20051;-52
2023/01/11 05:01:00;;;;;;;13.70;2.20;;;7.90;99.90;;;;;;4897398;29;20037;-48
2023/01/11 05:03:26;;;;;;;19.50;2.35;;;7.90;99.90;;;;;;4897347;29;20380;-43
2023/01/11 05:05:59;;;;;;;22.83;3.40;;;7.80;99.90;;;;;;4897188;29;20046;-49
2023/01/11 05:08:26;;;;;;;23.08;2.70;;;7.80;99.90;;;;;;4897043;29;20052;-49
2023/01/11 05:10:54;;;;;;;25.10;2.55;;;7.80;99.90;;;;;;4896978;29;20111;-45
2023/01/11 05:13:20;;;;;;;22.48;3.00;;;7.80;99.90;;;;;;4896814;29;20499;-50
2023/01/11 05:15:46;;;;;;;16.42;2.65;;;7.80;99.90;;;;;;4897082;29;20032;-43
2023/01/11 05:18:12;;;;;;;22.73;2.80;;;7.70;99.90;;;;;;4896957;29;20021;-49
2023/01/11 05:20:38;;;;;;;20.15;2.63;;;7.80;99.90;;;;;;4896741;29;20037;-44
2023/01/11 05:23:03;;;;;;;21.45;2.28;;;7.70;99.90;;;;;;4895806;29;20049;-50
2023/01/11 05:25:29;;;;;;;25.27;2.70;;;7.70;99.90;;;;;;4896521;29;20032;-48
2023/01/11 05:27:54;;;;;;;16.55;2.42;;;7.70;99.90;;;;;;4896688;29;20461;-44
2023/01/11 05:30:20;;;;;;;23.52;2.80;;;7.70;99.90;;;;;;4896653;29;20025;-46
2023/01/11 05:32:46;;;;;;;20.13;2.55;;;7.70;99.90;;;;;;4896740;29;20482;-43
2023/01/11 05:35:11;;;;;;;17.45;2.67;;;7.70;99.90;;;;;;4896763;29;20032;-48
2023/01/11 05:37:37;;;;;;;22.77;3.63;;;7.70;99.90;;;;;;4896507;29;20039;-45
2023/01/11 05:40:05;;;;;;;15.40;2.17;;;7.60;99.90;;;;;;4896656;29;20035;-47
2023/01/11 05:42:31;;;;;;;19.00;2.65;;;7.60;99.90;;;;;;4896294;29;20025;-47
2023/01/11 05:47:40;;;;;;;21.48;2.42;;;7.50;99.90;;;;;;4896633;29;20047;-46
2023/01/11 05:50:06;;;;;;;16.60;2.80;;;7.50;99.90;;;;;;4896355;29;20029;-50
2023/01/11 05:52:32;;;;;;;21.20;2.28;;;7.60;99.90;;;;;;4896119;29;20386;-48
2023/01/11 05:54:58;;;;;;;15.60;2.13;;;7.60;99.90;;;;;;4896389;29;20072;-43
2023/01/11 05:57:23;;;;;;;20.17;2.90;;;7.60;99.90;;;;;;4896665;29;20043;-54
2023/01/11 05:59:49;;;;;;;20.98;3.08;;;7.60;99.90;;;;;;4896208;29;20029;-45
2023/01/11 06:02:15;;;;;;;18.77;2.60;;;7.60;99.90;;;;;;4896344;29;20036;-49
2023/01/11 06:04:40;;;;;;;24.55;2.75;;;7.60;99.90;;;;;;4896058;29;20384;-45
2023/01/11 06:07:08;;;;;;;20.80;2.45;;;7.60;99.90;;;;;;4896354;29;20025;-45
2023/01/11 06:09:34;;;;;;;21.02;3.85;;;7.50;99.90;;;;;;4895816;29;20028;-45
2023/01/11 06:12:00;;;;;;;20.67;3.47;;;7.60;99.90;;;;;;4904435;29;20036;-45
2023/01/11 06:14:25;;;;;;;22.45;2.72;;;7.60;99.90;;;;;;4914174;29;20024;-44
2023/01/11 06:16:51;;;;;;;20.75;2.85;;;7.60;99.90;;;;;;4914672;29;20028;-43
2023/01/11 06:19:17;;;;;;;20.13;3.20;;;7.60;99.90;;;;;;4900130;29;20040;-45
2023/01/11 06:21:42;;;;;;;20.05;3.00;;;7.60;99.90;;;;;;4905535;29;20389;-44
2023/01/11 06:24:08;;;;;;;22.67;3.00;;;7.70;99.90;;;;;;4909034;29;20032;-45
2023/01/11 06:26:34;;;;;;;23.40;2.97;;;7.60;99.90;;;;;;4914732;29;20124;-45
2023/01/11 06:28:59;;;;;;;26.40;3.03;;;7.60;99.90;;;;;;4896639;29;20453;-46
2023/01/11 06:31:25;;;;;;;19.02;2.97;;;7.60;99.90;;;;;;4895298;29;20506;-45
2023/01/11 06:33:51;;;;;;;19.55;3.15;;;7.60;99.90;;;;;;4895551;29;20025;-45
2023/01/11 06:36:16;;;;;;;17.88;2.78;;;7.60;99.90;;;;;;4895707;29;20085;-45
2023/01/11 06:38:43;;;;;;;16.77;2.78;;;7.50;99.90;;;;;;4895637;29;20064;-45
2023/01/11 06:41:10;;;;;;;14.52;2.30;;;7.60;99.90;;;;;;4895539;29;20033;-45
2023/01/11 06:43:37;;;;;;;21.15;3.95;;;7.60;99.90;;;;;;4895632;29;20072;-45
2023/01/11 06:46:03;;;;;;;21.98;3.05;;;7.60;99.90;;;;;;4895113;29;20059;-45
2023/01/11 06:48:29;;;;;;;23.50;2.90;;;7.60;99.90;;;;;;4895624;29;20029;-45
2023/01/11 06:50:56;;;;;;;18.38;2.90;;;7.50;99.90;;;;;;4897751;29;20039;-45
2023/01/11 06:53:24;;;;;;;18.88;3.15;;;7.50;99.90;;;;;;4895669;29;20116;-45
2023/01/11 06:55:51;;;;;;;27.90;3.05;;;7.60;99.90;;;;;;4895427;29;20103;-45
2023/01/11 06:58:16;;;;;;;16.20;2.40;;;7.60;99.90;;;;;;4895557;29;20023;-44
2023/01/11 07:00:42;;;;;;;21.33;3.28;;;7.60;99.90;;;;;;4895467;29;20033;-45
2023/01/11 07:03:10;;;;;;;20.48;3.65;;;7.60;99.90;;;;;;4895315;29;20033;-45
2023/01/11 07:05:36;;;;;;;16.52;2.30;;;7.60;99.90;;;;;;4895396;29;20061;-45
2023/01/11 07:08:02;;;;;;;18.48;2.63;;;7.50;99.90;;;;;;4895268;29;20028;-48
2023/01/11 07:10:28;;;;;;;28.27;3.42;;;7.50;99.90;;;;;;4895458;29;20045;-45
2023/01/11 07:12:54;;;;;;;28.75;3.53;;;7.50;99.90;;;;;;4895342;29;20099;-54
2023/01/11 07:15:20;;;;;;;22.65;3.72;;;7.50;99.90;;;;;;4895349;29;20093;-48
2023/01/11 07:17:48;;;;;;;21.38;2.38;;;7.50;99.90;;;;;;4895216;29;20035;-50
2023/01/11 07:20:13;;;;;;;28.35;4.22;;;7.50;99.90;;;;;;4895182;29;20021;-46
2023/01/11 07:22:39;;;;;;;20.88;3.70;;;7.40;99.90;;;;;;4898120;29;20032;-48
2023/01/11 07:25:05;;;;;;;26.27;3.55;;;7.40;99.90;;;;;;4895096;29;20041;-51
2023/01/11 07:27:31;;;;;;;24.67;5.90;;;7.30;99.90;;;;;;4908650;29;20492;-49
2023/01/11 07:29:58;;;;;;;26.05;4.85;;;7.30;99.90;;;;;;4895447;29;20092;-52
2023/01/11 07:32:26;;;;;;;23.13;3.38;;;7.20;99.90;;;;;;4895174;29;20392;-50
2023/01/11 07:34:52;;;;;;;23.10;3.38;;;7.30;99.90;;;;;;4895094;29;20031;-55
2023/01/11 07:37:18;;;;;;;27.02;4.30;;;7.40;99.90;;;;;;4908388;29;20478;-48
2023/01/11 07:39:43;;;;;;;29.50;3.65;;;7.40;99.90;;;;;;4895364;29;20028;-49
2023/01/11 07:44:54;;;;;;;24.92;3.47;;;7.50;99.90;;;;;;4898647;29;20602;-46
2023/01/11 07:47:20;;;;;;;24.42;3.70;;;7.40;99.90;;;;;;4899651;29;20128;-54
2023/01/11 07:49:45;;;;;;;29.95;4.43;;;7.50;99.90;;;;;;4909941;29;20025;-48
2023/01/11 07:52:11;;;;;;;23.80;3.83;;;7.50;99.90;;;;;;4906317;29;20476;-51
2023/01/11 07:54:37;;;;;;;19.00;2.63;;;7.50;99.90;;;;;;4917487;29;20021;-48
2023/01/11 07:57:02;;;;;;;26.85;3.05;;;7.50;99.90;;;;;;4909489;29;20035;-45
2023/01/11 07:59:29;;;;;;;22.20;2.38;;;7.50;99.90;;;;;;4908303;29;20055;-48
2023/01/11 08:01:55;;;;;;;24.58;2.90;;;7.50;99.90;;;;;;4908870;29;20034;-50
2023/01/11 08:04:20;;;;;;;20.00;3.00;;;7.50;99.90;;;;;;4916844;29;20027;-50
2023/01/11 08:06:46;;;;;;;29.92;3.85;;;7.60;99.90;;;;;;4910542;29;20495;-51
2023/01/11 08:09:12;;;;;;;13.27;2.58;;;7.60;99.90;;;;;;4917020;29;20024;-52
2023/01/11 08:14:39;;;;;;;23.50;3.17;;;7.70;99.90;;;;;;4910472;29;20513;-51
2023/01/11 08:17:11;;;;;;;18.40;2.40;;;7.70;99.90;;;;;;4910496;29;20024;-46
2023/01/11 08:19:36;;;;;;;14.82;2.15;;;7.80;99.90;;;;;;4916518;29;20021;-43
2023/01/11 08:22:02;;;;;;;18.02;2.67;;;7.90;99.90;;;;;;4916756;29;20020;-52
2023/01/11 08:24:28;;;;;;;13.25;2.20;;;7.90;99.90;;;;;;4916721;29;20028;-46
2023/01/11 08:26:54;;;;;;;15.18;2.95;;;8.00;99.90;;;;;;4915884;29;20039;-49
2023/01/11 08:29:19;;;;;;;22.95;4.13;;;8.00;99.90;;;;;;4897912;29;20496;-45
2023/01/11 08:31:48;;;;;;;19.75;3.45;;;8.10;99.90;;;;;;4897856;29;20707;-54
2023/01/11 08:34:14;;;;;;;23.83;4.10;;;8.20;99.90;;;;;;4897851;29;20024;-49
2023/01/11 08:36:40;;;;;;;23.42;3.28;;;8.30;99.90;;;;;;4897694;29;20036;-46
2023/01/11 08:39:06;;;;;;;18.02;3.50;;;8.30;99.90;;;;;;4910619;29;20121;-44
2023/01/11 08:41:31;;;;;;;21.63;3.53;;;8.40;99.90;;;;;;4897569;29;20033;-46
2023/01/11 08:43:57;;;;;;;20.02;3.25;;;8.40;99.90;;;;;;4897487;29;20032;-52
2023/01/11 08:46:24;;;;;;;19.10;2.85;;;8.50;99.90;;;;;;4897506;29;20044;-56
2023/01/11 08:48:49;;;;;;;19.40;3.58;;;8.60;99.90;;;;;;4897450;29;20492;-46
2023/01/11 08:51:16;;;;;;;20.70;2.42;;;8.60;99.90;;;;;;4897446;29;20039;-49
2023/01/11 08:53:42;;;;;;;14.48;2.40;;;8.70;99.90;;;;;;4897392;29;20495;-46
2023/01/11 08:56:08;;;;;;;10.95;2.22;;;8.80;99.90;;;;;;4897279;29;20056;-51
2023/01/11 08:58:34;;;;;;;16.38;2.95;;;8.90;99.90;;;;;;4909753;29;20032;-50
2023/01/11 09:01:02;;;;;;;15.38;2.08;;;8.90;99.90;;;;;;4907733;29;20026;-47
2023/01/11 09:03:31;;;;;;;18.73;2.63;;;8.90;99.90;;;;;;4910368;29;20088;-49
2023/01/11 09:05:56;;;;;;;16.65;2.60;;;8.90;99.90;;;;;;4910297;29;20071;-54
2023/01/11 09:08:24;;;;;;;19.35;3.03;;;8.90;99.90;;;;;;4903125;29;20021;-45
2023/01/11 09:10:50;;;;;;;16.00;1.77;;;8.90;99.90;;;;;;4906890;29;20503;-51
2023/01/11 09:13:16;;;;;;;16.98;2.28;;;8.90;99.90;;;;;;4904723;29;20016;-46
2023/01/11 09:15:41;;;;;;;19.48;2.78;;;8.90;99.90;;;;;;4911768;29;20036;-46
2023/01/11 09:18:07;;;;;;;21.05;2.28;;;8.90;99.90;;;;;;4915939;29;20479;-50
2023/01/11 09:20:33;;;;;;;11.52;2.40;;;8.80;99.90;;;;;;4915883;29;20054;-53
2023/01/11 09:22:58;;;;;;;16.52;2.17;;;8.80;99.90;;;;;;4915819;29;20039;-47
2023/01/11 09:25:24;;;;;;;14.07;2.17;;;8.80;99.90;;;;;;4907577;29;20092;-48
2023/01/11 09:27:50;;;;;;;18.98;2.25;;;8.70;99.90;;;;;;4908150;29;20025;-48
2023/01/11 09:30:19;;;;;;;14.68;2.30;;;8.70;99.90;;;;;;4896631;29;20044;-51
2023/01/11 09:32:46;;;;;;;17.52;2.80;;;8.70;99.90;;;;;;4896912;29;20035;-49
2023/01/11 09:35:14;;;;;;;25.92;3.35;;;8.60;99.90;;;;;;4896828;29;20492;-44
2023/01/11 09:37:44;;;;;;;14.65;2.20;;;8.60;99.90;;;;;;4908676;29;20099;-45
2023/01/11 09:40:22;;;;;;;15.65;1.85;;;8.60;99.90;;;;;;4912878;29;20020;-49
2023/01/11 09:42:55;;;;;;;13.38;1.95;;;8.70;99.90;;;;;;4901738;29;20108;-44
2023/01/11 09:45:23;;;;;;;16.67;2.50;;;8.90;99.90;;;;;;4910063;29;20423;-44
2023/01/11 09:48:10;;;;;;;15.02;2.47;;;9.00;99.90;;;;;;4913920;29;20028;-49
2023/01/11 09:50:42;;;;;;;18.90;3.25;;;9.20;99.90;;;;;;4909171;29;20047;-44
2023/01/11 09:53:16;;;;;;;14.00;2.47;;;9.20;99.90;;;;;;4909239;29;20536;-49
2023/01/11 09:55:45;;;;;;;20.33;2.40;;;9.20;99.90;;;;;;4909117;29;20028;-44
2023/01/11 09:58:21;;;;;;;16.70;3.03;;;9.20;99.90;;;;;;4909730;29;20067;-48
2023/01/11 10:00:53;;;;;;;15.15;2.00;;;9.40;99.90;;;;;;4907966;29;20559;-51
2023/01/11 10:03:37;;;;;;;19.50;2.60;;;9.40;99.90;;;;;;4914059;29;20103;-49
2023/01/11 10:06:18;;;;;;;12.52;1.88;;;9.50;99.90;;;;;;4909108;29;20520;-45
2023/01/11 10:09:17;;;;;;;15.02;2.67;;;9.50;99.90;;;;;;4913766;29;20435;-46
2023/01/11 10:12:24;;;;;;;8.98;1.60;;;10.00;99.90;;;;;;4905006;29;20036;-45
2023/01/11 10:15:23;;;;;;;12.90;1.77;;;11.30;99.90;;;;;;4914925;29;20106;-45
2023/01/11 10:18:08;;;;;;;8.55;1.52;;;12.70;99.90;;;;;;4914499;29;20075;-46
2023/01/11 10:20:42;;;;;;;8.43;1.88;;;13.70;99.90;;;;;;4900806;29;20510;-45
2023/01/11 10:23:20;;;;;;;8.57;1.92;;;14.10;99.90;;;;;;4910514;29;20028;-48
2023/01/11 10:25:53;;;;;;;11.27;1.80;;;14.30;99.90;;;;;;4914506;29;20028;-45
2023/01/11 10:28:30;;;;;;;8.48;1.77;;;14.40;98.90;;;;;;4903598;29;20071;-46
2023/01/11 10:36:38;;;;;;;8.73;2.03;;;13.70;97.80;;;;;;4894186;29;20455;-53
2023/01/11 10:39:45;;;;;;;15.23;2.30;;;12.50;99.80;;;;;;4892419;29;20495;-49
2023/01/11 10:42:20;;;;;;;17.70;2.55;;;11.70;99.90;;;;;;4893987;29;20460;-47
2023/01/11 10:44:49;;;;;;;17.70;2.25;;;11.10;99.90;;;;;;4893888;29;20047;-48
2023/01/11 10:47:20;;;;;;;13.45;2.08;;;11.10;99.90;;;;;;4893890;29;20040;-52
2023/01/11 10:50:11;;;;;;;11.02;1.90;;;12.50;99.90;;;;;;4893945;29;20503;-50
2023/01/11 10:53:16;;;;;;;7.55;1.73;;;14.10;99.90;;;;;;4903312;29;20088;-52
2023/01/11 10:56:03;;;;;;;13.80;2.55;;;15.30;98.10;;;;;;4913069;29;20028;-50
2023/01/11 10:58:38;;;;;;;9.35;1.88;;;16.00;95.90;;;;;;4910975;29;20044;-45
2023/01/11 11:01:19;;;;;;;12.60;2.40;;;16.50;95.20;;;;;;4902112;29;20033;-45
2023/01/11 11:04:09;;;;;;;9.32;2.13;;;17.00;92.90;;;;;;4900308;29;20112;-48
2023/01/11 11:06:49;;;;;;;9.43;2.00;;;17.00;92.50;;;;;;4902645;29;20134;-52
2023/01/11 11:09:53;;;;;;;9.10;2.15;;;16.60;92.30;;;;;;4899115;29;20056;-52
2023/01/11 11:12:27;;;;;;;13.70;2.13;;;16.90;92.10;;;;;;4882612;29;20424;-46
2023/01/11 11:15:13;;;;;;;11.98;2.13;;;16.50;92.20;;;;;;4912526;29;20095;-49
2023/01/11 11:17:44;;;;;;;11.48;2.13;;;16.10;91.70;;;;;;4908885;29;20020;-46
2023/01/11 11:20:21;;;;;;;13.93;2.28;;;16.30;91.80;;;;;;4917907;29;20103;-53
2023/01/11 11:22:52;;;;;;;13.38;2.13;;;16.60;92.30;;;;;;4918002;29;20031;-45
2023/01/11 11:25:26;;;;;;;10.73;2.08;;;16.50;90.90;;;;;;4917820;29;20036;-46
2023/01/11 11:27:57;;;;;;;10.60;2.58;;;16.30;91.30;;;;;;4910189;29;20036;-54
2023/01/11 11:30:33;;;;;;;11.30;1.67;;;16.90;92.00;;;;;;4897636;29;20476;-48
2023/01/11 11:33:15;;;;;;;15.57;2.58;;;17.60;90.30;;;;;;4899328;29;20032;-48
2023/01/11 11:35:45;;;;;;;8.82;1.60;;;17.80;88.80;;;;;;4898848;29;20060;-48
2023/01/11 11:38:39;;;;;;;10.20;1.77;;;17.80;86.90;;;;;;4899084;29;20040;-49
2023/01/11 11:41:12;;;;;;;9.60;1.77;;;17.40;87.80;;;;;;4896801;29;20036;-46
2023/01/11 11:43:42;;;;;;;13.35;2.08;;;17.00;89.10;;;;;;4898880;29;20052;-46
2023/01/11 11:46:14;;;;;;;17.23;2.78;;;16.70;90.00;;;;;;4898688;29;20044;-46
2023/01/11 11:48:41;;;;;;;9.30;2.15;;;16.20;90.70;;;;;;4898788;29;20052;-46
2023/01/11 11:51:22;;;;;;;15.60;2.75;;;15.90;91.10;;;;;;4901974;29;20032;-49
2023/01/11 11:53:54;;;;;;;10.98;2.75;;;16.00;90.90;;;;;;4917454;29;20040;-49
2023/01/11 11:56:22;;;;;;;10.50;2.20;;;16.40;90.90;;;;;;4917399;29;20379;-50
2023/01/11 11:58:49;;;;;;;7.43;1.92;;;16.60;89.90;;;;;;4917532;29;20024;-46
2023/01/11 12:01:23;;;;;;;16.08;2.25;;;16.30;90.60;;;;;;4914060;29;20084;-50
2023/01/11 12:03:54;;;;;;;12.40;1.88;;;16.30;90.00;;;;;;4908110;29;20025;-48
2023/01/11 12:06:23;;;;;;;11.20;1.95;;;16.40;90.00;;;;;;4917121;29;20040;-45
2023/01/11 12:08:49;;;;;;;8.13;1.70;;;15.90;90.20;;;;;;4915480;29;20083;-47
2023/01/11 12:11:21;;;;;;;12.57;2.30;;;15.00;90.70;;;;;;4916917;29;20032;-47
2023/01/11 12:14:17;;;;;;;18.90;2.75;;;14.80;92.90;;;;;;4917056;29;20024;-41
2023/01/11 12:16:44;;;;;;;13.85;2.42;;;14.60;92.60;;;;;;4916637;29;20032;-41
2023/01/11 12:19:25;;;;;;;15.15;3.25;;;14.20;93.60;;;;;;4917111;29;20036;-48
2023/01/11 12:21:51;;;;;;;11.20;1.88;;;14.20;94.10;;;;;;4900826;29;20036;-46
2023/01/11 12:24:22;;;;;;;14.10;2.10;;;14.50;93.80;;;;;;4907125;29;20021;-47
2023/01/11 12:26:57;;;;;;;14.82;2.50;;;14.40;93.90;;;;;;4917050;29;20048;-48
2023/01/11 12:29:47;;;;;;;17.60;2.40;;;14.70;94.10;;;;;;4897467;29;20033;-47
2023/01/11 12:32:37;;;;;;;10.70;2.40;;;15.30;94.00;;;;;;4897931;29;20020;-46
2023/01/11 12:35:15;;;;;;;21.02;2.97;;;15.50;92.30;;;;;;4898167;29;20057;-50
2023/01/11 12:37:59;;;;;;;19.67;2.95;;;14.90;93.00;;;;;;4897802;29;20029;-47
2023/01/11 12:40:46;;;;;;;11.82;2.30;;;15.10;94.10;;;;;;4910342;29;20050;-46
2023/01/11 12:44:03;;;;;;;11.20;1.95;;;15.90;92.70;;;;;;4915356;29;20119;-46
2023/01/11 12:46:43;;;;;;;18.55;2.83;;;15.40;92.70;;;;;;4879290;29;20049;-46
2023/01/11 12:49:12;;;;;;;18.13;2.80;;;14.00;94.00;;;;;;4904258;29;20043;-48
2023/01/11 12:52:10;;;;;;;12.50;2.22;;;12.90;96.20;;;;;;4902233;29;20488;-44
2023/01/11 12:54:50;;;;;;;19.42;2.85;;;12.10;97.80;;;;;;4888323;29;20103;-48
2023/01/11 12:57:37;;;;;;;19.10;2.92;;;12.00;99.60;;;;;;4916175;29;20032;-49
2023/01/11 13:00:40;;;;;;;20.63;2.85;;;13.00;98.40;;;;;;4913595;29;20138;-47
2023/01/11 13:03:15;;;;;;;17.48;2.95;;;14.00;96.40;;;;;;4915297;29;20028;-46
2023/01/11 13:05:51;;;;;;;14.38;2.47;;;15.40;94.80;;;;;;4907345;29;20060;-48
2023/01/11 13:08:40;;;;;;;16.15;2.40;;;15.70;92.30;;;;;;4906338;29;20067;-51
2023/01/11 13:11:08;;;;;;;19.65;2.85;;;15.80;92.10;;;;;;4904092;29;20084;-46
2023/01/11 13:13:51;;;;;;;19.02;2.85;;;14.80;92.30;;;;;;4912505;29;20495;-46
2023/01/11 13:16:29;;;;;;;16.88;2.70;;;13.80;93.90;;;;;;4902325;29;20123;-49
2023/01/11 13:19:06;;;;;;;18.83;3.60;;;12.40;96.30;;;;;;4901348;29;20035;-47
2023/01/11 13:21:43;;;;;;;18.38;2.60;;;11.80;98.30;;;;;;4902621;29;20457;-47
2023/01/11 13:24:28;;;;;;;26.98;3.45;;;11.50;99.70;;;;;;4914278;29;20051;-47
2023/01/11 13:26:59;;;;;;;21.52;2.92;;;11.40;99.90;;;;;;4915030;29;20032;-45
2023/01/11 13:29:31;;;;;;;19.55;2.97;;;11.30;99.90;;;;;;4896785;29;20029;-48
2023/01/11 13:32:01;;;;;;;23.02;2.80;;;11.30;99.90;;;;;;4906997;29;20348;-46
2023/01/11 13:34:33;;;;;;;26.75;3.20;;;11.30;99.90;;;;;;4905455;29;20020;-45
2023/01/11 13:37:24;;;;;;;21.65;2.67;;;11.40;99.90;;;;;;4913603;29;20048;-46
2023/01/11 13:40:08;;;;;;;28.42;3.40;;;11.40;99.90;;;;;;4904934;29;20579;-50
2023/01/11 13:42:42;;;;;;;20.30;3.00;;;11.30;99.90;;;;;;4914784;29;20028;-49
2023/01/11 13:45:30;;;;;;;29.05;3.83;;;11.40;99.90;;;;;;4903709;29;20071;-47